createdAt,value
2022-10-16T04:30:32.499Z,98.32
2022-10-16T04:31:32.449Z,98.52
2022-10-16T04:32:32.464Z,98.32
2022-10-16T04:33:32.429Z,98.77
2022-10-16T04:34:32.415Z,98.37
2022-10-16T04:35:32.433Z,98.52
2022-10-16T04:36:32.414Z,98.47
2022-10-16T04:37:32.384Z,98.41
2022-10-16T04:38:32.375Z,98.62
2022-10-16T04:39:32.364Z,98.62
2022-10-16T04:40:32.383Z,98.41
2022-10-16T04:41:32.361Z,98.72
2022-10-16T04:42:33.008Z,98.57
2022-10-16T04:43:32.324Z,98.77
2022-10-16T04:44:32.310Z,98.82
2022-10-16T04:45:32.301Z,98.41
2022-10-16T04:46:32.332Z,97.86
2022-10-16T04:47:32.273Z,97.91
2022-10-16T04:48:32.280Z,97.76
2022-10-16T04:49:32.245Z,97.96
2022-10-16T04:50:32.248Z,97.96
2022-10-16T04:51:32.251Z,98.07
2022-10-16T04:52:32.345Z,98.16
2022-10-16T04:53:32.226Z,98.07
2022-10-16T04:54:32.197Z,97.66
2022-10-16T04:55:32.191Z,98.16
2022-10-16T04:56:32.168Z,97.66
2022-10-16T04:57:32.188Z,98.27
2022-10-16T04:58:32.191Z,98.68
2022-10-16T04:59:32.139Z,98.57
2022-10-16T05:00:32.152Z,98.47
2022-10-16T05:01:32.123Z,98.57
2022-10-16T05:02:32.203Z,98.47
2022-10-16T05:03:32.101Z,98.47
2022-10-16T05:04:32.140Z,98.68
2022-10-16T05:05:32.090Z,98.57
2022-10-16T05:06:32.061Z,98.37
2022-10-16T05:07:32.053Z,98.68
2022-10-16T05:08:32.037Z,98.77
2022-10-16T05:09:32.055Z,98.47
2022-10-16T05:10:32.053Z,98.57
2022-10-16T05:11:32.009Z,98.47
2022-10-16T05:12:31.996Z,98.37
2022-10-16T05:13:31.998Z,97.76
2022-10-16T05:14:31.976Z,97.92
2022-10-16T05:15:31.987Z,98.16
2022-10-16T05:16:31.994Z,97.71
2022-10-16T05:17:31.947Z,98.68
2022-10-16T05:18:31.952Z,98.52
2022-10-16T05:19:31.927Z,98.63
2022-10-16T05:20:31.931Z,98.32
2022-10-16T05:21:31.915Z,98.63
2022-10-16T05:22:31.911Z,99.13
2022-10-16T05:23:31.891Z,98.93
2022-10-16T05:24:31.888Z,99.13
2022-10-16T05:25:31.867Z,98.52
2022-10-16T05:26:31.846Z,98.63
2022-10-16T05:27:31.853Z,98.73
2022-10-16T05:28:31.901Z,99.24
2022-10-16T05:29:31.814Z,99.33
2022-10-16T05:30:31.814Z,98.93
2022-10-16T05:31:31.793Z,99.04
2022-10-16T05:32:31.802Z,99.24
2022-10-16T05:33:31.773Z,99.33
2022-10-16T05:34:31.806Z,99.24
2022-10-16T05:35:31.773Z,99.85
2022-10-16T05:36:31.741Z,99.85
2022-10-16T05:37:31.758Z,99.74
2022-10-16T05:38:31.712Z,99.64
2022-10-16T05:39:31.704Z,99.64
2022-10-16T05:40:31.700Z,99.54
2022-10-16T05:41:31.736Z,99.33
2022-10-16T05:42:31.674Z,99.44
2022-10-16T05:43:31.694Z,99.33
2022-10-16T05:44:31.653Z,99.64
2022-10-16T05:45:31.644Z,99.44
2022-10-16T05:46:31.625Z,99.33
2022-10-16T05:47:31.661Z,99.33
2022-10-16T05:48:31.622Z,99.44
2022-10-16T05:49:31.604Z,99.64
2022-10-16T05:50:31.619Z,99.64
2022-10-16T05:51:31.578Z,99.74
2022-10-16T05:52:31.565Z,99.95
2022-10-16T05:53:31.614Z,99.95
2022-10-16T05:54:31.563Z,99.99
2022-10-16T05:55:31.530Z,99.99
2022-10-16T05:56:31.531Z,99.99
2022-10-16T05:57:31.515Z,99.99
2022-10-16T05:58:31.499Z,99.99
2022-10-16T05:59:31.513Z,99.99
2022-10-16T06:00:31.479Z,99.99
2022-10-16T06:01:31.502Z,99.95
2022-10-16T06:02:31.452Z,99.99
2022-10-16T06:03:31.447Z,99.99
2022-10-16T06:04:31.445Z,99.99
2022-10-16T06:05:31.444Z,99.99
2022-10-16T06:06:31.426Z,99.99
2022-10-16T06:07:31.400Z,99.99
2022-10-16T06:08:31.391Z,99.99
2022-10-16T06:09:31.400Z,99.99
2022-10-16T06:10:31.367Z,99.99
2022-10-16T06:11:31.362Z,99.85
2022-10-16T06:12:31.346Z,99.99
2022-10-16T06:13:31.331Z,99.74
2022-10-16T06:14:31.386Z,99.99
2022-10-16T06:15:31.319Z,99.99
2022-10-16T06:16:31.308Z,99.99
2022-10-16T06:17:31.303Z,99.95
2022-10-16T06:18:31.283Z,99.95
2022-10-16T06:19:31.285Z,99.99
2022-10-16T06:20:31.269Z,99.99
2022-10-16T06:21:31.250Z,99.99
2022-10-16T06:22:31.261Z,99.99
2022-10-16T06:23:31.244Z,99.99
2022-10-16T06:24:31.232Z,99.99
2022-10-16T06:25:31.205Z,99.99
2022-10-16T06:26:31.190Z,99.99
2022-10-16T06:27:31.182Z,99.99
2022-10-16T06:28:31.190Z,99.99
2022-10-16T06:29:31.209Z,99.90
2022-10-16T06:30:31.151Z,99.99
2022-10-16T06:31:31.196Z,99.99
2022-10-16T06:32:31.130Z,99.99
2022-10-16T06:33:31.115Z,99.99
2022-10-16T06:34:31.110Z,99.95
2022-10-16T06:35:31.147Z,99.99
2022-10-16T06:36:31.100Z,99.99
2022-10-16T06:37:31.115Z,99.99
2022-10-16T06:38:31.092Z,99.90
2022-10-16T06:39:31.062Z,99.90
2022-10-16T06:40:31.043Z,99.90
2022-10-16T06:41:31.044Z,99.95
2022-10-16T06:42:31.080Z,99.80
2022-10-16T06:43:31.030Z,99.90
2022-10-16T06:44:31.002Z,99.99
2022-10-16T06:45:30.990Z,99.95
2022-10-16T06:46:30.979Z,99.99
2022-10-16T06:47:30.986Z,99.60
2022-10-16T06:48:31.011Z,99.85
2022-10-16T06:49:30.966Z,99.69
2022-10-16T06:50:30.934Z,99.69
2022-10-16T06:51:30.929Z,99.69
2022-10-16T06:52:30.915Z,99.69
2022-10-16T06:53:39.574Z,99.60
2022-10-16T06:54:36.416Z,99.49
2022-10-16T06:55:31.913Z,99.39
2022-10-16T06:56:30.873Z,99.08
2022-10-16T06:57:30.860Z,99.49
2022-10-16T06:58:30.870Z,99.60
2022-10-16T06:59:30.835Z,99.69
2022-10-16T07:00:30.851Z,99.49
2022-10-16T07:01:30.838Z,99.35
2022-10-16T07:02:30.803Z,99.39
2022-10-16T07:03:30.793Z,99.65
2022-10-16T07:04:30.799Z,99.55
2022-10-16T07:05:30.770Z,99.55
2022-10-16T07:06:30.786Z,99.75
2022-10-16T07:07:30.743Z,99.55
2022-10-16T07:08:30.732Z,99.65
2022-10-16T07:10:30.731Z,99.35
2022-10-16T07:11:30.704Z,99.55
2022-10-16T07:12:30.724Z,99.39
2022-10-16T07:13:30.685Z,99.55
2022-10-16T07:14:30.700Z,99.95
2022-10-16T07:15:30.669Z,99.90
2022-10-16T07:16:30.646Z,99.85
2022-10-16T07:17:30.646Z,99.55
2022-10-16T07:19:33.372Z,99.24
2022-10-16T07:20:30.603Z,99.44
2022-10-16T07:21:30.597Z,99.24
2022-10-16T07:22:30.618Z,99.55
2022-10-16T07:23:30.577Z,98.94
2022-10-16T07:24:30.585Z,99.14
2022-10-16T07:25:30.545Z,98.94
2022-10-16T07:26:30.556Z,98.94
2022-10-16T07:27:30.594Z,98.90
2022-10-16T07:28:30.601Z,98.94
2022-10-16T07:29:30.505Z,98.63
2022-10-16T07:30:30.536Z,98.69
2022-10-16T07:31:30.490Z,98.49
2022-10-16T07:32:30.494Z,98.90
2022-10-16T07:33:30.463Z,98.79
2022-10-16T07:34:30.448Z,98.79
2022-10-16T07:35:30.447Z,99.19
2022-10-16T07:36:30.527Z,98.69
2022-10-16T07:37:30.460Z,98.99
2022-10-16T07:38:30.432Z,98.79
2022-10-16T07:39:30.422Z,98.85
2022-10-16T07:40:30.381Z,98.85
2022-10-16T07:41:30.371Z,98.95
2022-10-16T07:42:30.381Z,98.24
2022-10-16T07:43:30.410Z,98.65
2022-10-16T07:44:30.341Z,98.34
2022-10-16T07:45:30.368Z,98.54
2022-10-16T07:46:30.323Z,98.14
2022-10-16T07:47:30.306Z,98.14
2022-10-16T07:48:30.300Z,98.54
2022-10-16T07:49:30.313Z,98.03
2022-10-16T07:50:30.302Z,98.19
2022-10-16T07:51:30.265Z,98.09
2022-10-16T07:52:30.256Z,98.29
2022-10-16T07:53:30.264Z,98.60
2022-10-16T07:54:30.247Z,97.99
2022-10-16T07:55:30.240Z,97.38
2022-10-16T07:56:30.219Z,97.58
2022-10-16T07:57:30.202Z,97.58
2022-10-16T07:58:30.227Z,97.38
2022-10-16T07:59:30.176Z,97.89
2022-10-16T08:00:30.163Z,97.38
2022-10-16T08:01:30.277Z,97.74
2022-10-16T08:02:30.175Z,97.54
2022-10-16T08:03:30.144Z,97.03
2022-10-16T08:04:30.124Z,96.83
2022-10-16T08:05:30.107Z,96.73
2022-10-16T08:06:30.125Z,96.42
2022-10-16T08:07:30.101Z,96.63
2022-10-16T08:08:30.099Z,96.73
2022-10-16T08:09:30.099Z,96.33
2022-10-16T08:10:30.062Z,95.92
2022-10-16T08:11:30.042Z,95.72
2022-10-16T08:12:30.039Z,95.51
2022-10-16T08:13:30.055Z,95.51
2022-10-16T08:14:30.038Z,95.37
2022-10-16T08:15:30.032Z,95.37
2022-10-16T08:16:29.999Z,95.37
2022-10-16T08:17:29.991Z,95.47
2022-10-16T08:18:29.993Z,94.66
2022-10-16T08:19:29.969Z,94.96
2022-10-16T08:20:29.989Z,94.51
2022-10-16T08:21:29.947Z,94.42
2022-10-16T08:22:29.931Z,94.72
2022-10-16T08:23:29.939Z,94.42
2022-10-16T08:24:29.906Z,94.62
2022-10-16T08:25:30.119Z,94.47
2022-10-16T08:26:29.908Z,94.67
2022-10-16T08:27:29.974Z,94.37
2022-10-16T08:28:29.893Z,94.47
2022-10-16T08:29:29.860Z,94.17
2022-10-16T08:30:29.884Z,93.46
2022-10-16T08:31:29.831Z,93.05
2022-10-16T08:32:30.239Z,93.51
2022-10-16T08:33:29.832Z,93.16
2022-10-16T08:34:29.814Z,92.85
2022-10-16T08:35:29.791Z,92.60
2022-10-16T08:36:29.793Z,92.29
2022-10-16T08:37:29.765Z,92.35
2022-10-16T08:38:29.758Z,91.54
2022-10-16T08:39:29.777Z,92.76
2022-10-16T08:40:29.756Z,91.85
2022-10-16T08:41:29.724Z,91.85
2022-10-16T08:42:29.825Z,92.05
2022-10-16T08:43:29.697Z,92.05
2022-10-16T08:44:29.692Z,91.64
2022-10-16T08:45:29.712Z,92.05
2022-10-16T08:46:29.685Z,91.03
2022-10-16T08:47:29.674Z,90.59
2022-10-16T08:48:29.680Z,90.28
2022-10-16T08:49:29.697Z,89.68
2022-10-16T08:50:29.623Z,89.48
2022-10-16T08:51:29.668Z,89.58
2022-10-16T08:52:29.607Z,89.68
2022-10-16T08:53:29.602Z,89.68
2022-10-16T08:54:29.585Z,89.28
2022-10-16T08:55:29.572Z,89.13
2022-10-16T08:56:29.596Z,89.34
2022-10-16T08:57:29.623Z,89.03
2022-10-16T08:58:29.538Z,88.63
2022-10-16T08:59:29.546Z,87.62
2022-10-16T09:00:29.571Z,87.48
2022-10-16T09:01:29.502Z,87.92
2022-10-16T09:02:29.991Z,88.02
2022-10-16T09:03:29.498Z,88.18
2022-10-16T09:04:29.469Z,88.68
2022-10-16T09:05:29.460Z,88.93
2022-10-16T09:06:29.453Z,88.53
2022-10-16T09:07:29.432Z,87.62
2022-10-16T09:08:29.469Z,87.68
2022-10-16T09:09:29.415Z,87.92
2022-10-16T09:10:29.398Z,87.88
2022-10-16T09:11:29.394Z,87.82
2022-10-16T09:12:29.581Z,87.82
2022-10-16T09:13:29.397Z,88.02
2022-10-16T09:14:29.382Z,87.01
2022-10-16T09:15:29.352Z,87.27
2022-10-16T09:16:29.342Z,87.48
2022-10-16T09:17:29.587Z,87.63
2022-10-16T09:18:32.528Z,87.74
2022-10-16T09:19:29.293Z,86.43
2022-10-16T09:20:29.331Z,86.83
2022-10-16T09:21:29.276Z,86.22
2022-10-16T09:22:29.283Z,85.62
2022-10-16T09:23:29.251Z,85.82
2022-10-16T09:24:29.549Z,86.13
2022-10-16T09:25:29.248Z,85.52
2022-10-16T09:26:29.298Z,85.82
2022-10-16T09:27:29.598Z,85.72
2022-10-16T09:28:29.239Z,86.02
2022-10-16T09:29:29.191Z,86.29
2022-10-16T09:30:29.198Z,85.62
2022-10-16T09:31:29.175Z,85.98
2022-10-16T09:32:29.173Z,85.68
2022-10-16T09:33:29.159Z,85.88
2022-10-16T09:34:29.147Z,84.74
2022-10-16T09:35:29.149Z,85.70
2022-10-16T09:36:29.116Z,85.60
2022-10-16T09:37:51.037Z,84.19
2022-10-16T09:38:29.081Z,82.58
2022-10-16T09:39:29.103Z,82.38
2022-10-16T09:40:29.085Z,82.78
2022-10-16T09:41:29.057Z,83.18
2022-10-16T09:42:29.064Z,82.78
2022-10-16T09:43:29.031Z,82.58
2022-10-16T09:44:29.108Z,82.14
2022-10-16T09:45:29.010Z,81.93
2022-10-16T09:46:29.036Z,81.79
2022-10-16T09:47:29.281Z,81.65
2022-10-16T09:48:28.977Z,80.45
2022-10-16T09:49:29.007Z,80.51
2022-10-16T09:50:28.980Z,81.12
2022-10-16T09:51:28.970Z,79.81
2022-10-16T09:52:29.002Z,80.07
2022-10-16T09:53:28.924Z,78.77
2022-10-16T09:54:28.911Z,78.73
2022-10-16T09:55:28.900Z,78.12
2022-10-16T09:56:28.909Z,78.83
2022-10-16T09:57:29.429Z,78.53
2022-10-16T09:58:28.887Z,78.33
2022-10-16T09:59:28.890Z,78.83
2022-10-16T10:00:28.845Z,78.93
2022-10-16T10:01:28.837Z,77.83
2022-10-16T10:02:28.828Z,78.83
2022-10-16T10:03:28.817Z,78.73
2022-10-16T10:04:28.833Z,77.09
2022-10-16T10:05:28.797Z,76.89
2022-10-16T10:06:28.798Z,77.39
2022-10-16T10:07:28.965Z,77.05
2022-10-16T10:08:28.795Z,76.85
2022-10-16T10:09:28.751Z,76.04
2022-10-16T10:10:28.751Z,75.45
2022-10-16T10:11:28.772Z,74.54
2022-10-16T10:12:29.148Z,75.84
2022-10-16T10:13:28.743Z,76.15
2022-10-16T10:14:28.696Z,76.11
2022-10-16T10:15:28.689Z,75.71
2022-10-16T10:16:28.682Z,74.51
2022-10-16T10:17:28.736Z,76.31
2022-10-16T10:18:28.652Z,74.71
2022-10-16T10:19:32.638Z,74.80
2022-10-16T10:20:28.632Z,75.81
2022-10-16T10:21:28.631Z,75.97
2022-10-16T10:22:29.251Z,74.57
2022-10-16T10:23:28.626Z,74.57
2022-10-16T10:24:28.589Z,73.43
2022-10-16T10:25:28.580Z,73.36
2022-10-16T10:26:28.572Z,74.73
2022-10-16T10:27:28.569Z,72.93
2022-10-16T10:28:28.585Z,72.73
2022-10-16T10:29:28.577Z,72.43
2022-10-16T10:30:28.522Z,72.63
2022-10-16T10:31:28.508Z,72.80
2022-10-16T10:32:28.912Z,72.43
2022-10-16T10:33:28.491Z,72.63
2022-10-16T10:34:28.489Z,71.80
2022-10-16T10:35:28.502Z,71.93
2022-10-16T10:36:28.475Z,72.23
2022-10-16T10:37:28.448Z,71.46
2022-10-16T10:38:28.446Z,72.56
2022-10-16T10:39:28.450Z,73.03
2022-10-16T10:40:28.412Z,73.03
2022-10-16T10:41:30.641Z,72.83
2022-10-16T10:42:28.770Z,71.59
2022-10-16T10:43:28.420Z,72.39
2022-10-16T10:44:28.387Z,71.73
2022-10-16T10:45:28.359Z,73.39
2022-10-16T10:46:28.370Z,71.80
2022-10-16T10:47:28.357Z,70.29
2022-10-16T10:49:28.340Z,71.33
2022-10-16T10:50:28.296Z,72.00
2022-10-16T10:51:28.310Z,71.23
2022-10-16T10:52:28.672Z,71.33
2022-10-16T10:53:28.268Z,70.73
2022-10-16T10:54:28.285Z,71.33
2022-10-16T10:55:28.271Z,71.63
2022-10-16T10:56:28.235Z,70.50
2022-10-16T10:57:28.273Z,71.53
2022-10-16T10:58:30.015Z,70.62
2022-10-16T10:59:28.213Z,70.19
2022-10-16T11:00:28.200Z,70.59
2022-10-16T11:01:28.275Z,70.69
2022-10-16T11:02:28.694Z,70.39
2022-10-16T11:03:28.162Z,71.33
2022-10-16T11:04:28.145Z,70.62
2022-10-16T11:05:28.141Z,70.73
2022-10-16T11:06:28.180Z,70.86
2022-10-16T11:07:28.450Z,70.86
2022-10-16T11:08:28.105Z,71.36
2022-10-16T11:09:28.104Z,72.00
2022-10-16T11:10:28.109Z,72.00
2022-10-16T11:11:28.079Z,72.50
2022-10-16T11:12:28.099Z,72.77
2022-10-16T11:13:28.098Z,74.77
2022-10-16T11:14:28.038Z,71.83
2022-10-16T11:15:28.036Z,71.63
2022-10-16T11:16:28.025Z,71.23
2022-10-16T11:17:28.534Z,71.93
2022-10-16T11:18:27.998Z,71.12
2022-10-16T11:19:28.017Z,71.33
2022-10-16T11:20:27.975Z,72.43
2022-10-16T11:21:31.034Z,70.83
2022-10-16T11:22:27.956Z,71.36
2022-10-16T11:23:27.964Z,70.36
2022-10-16T11:24:27.936Z,71.96
2022-10-16T11:25:27.956Z,71.59
2022-10-16T11:26:27.941Z,71.90
2022-10-16T11:27:28.254Z,72.06
2022-10-16T11:28:30.936Z,71.56
2022-10-16T11:29:27.891Z,71.80
2022-10-16T11:30:27.865Z,73.30
2022-10-16T11:31:27.878Z,72.20
2022-10-16T11:32:27.844Z,70.63
2022-10-16T11:33:27.836Z,72.03
2022-10-16T11:34:27.856Z,71.80
2022-10-16T11:35:27.813Z,72.09
2022-10-16T11:36:27.815Z,72.09
2022-10-16T11:37:28.229Z,72.74
2022-10-16T11:38:27.807Z,71.83
2022-10-16T11:39:27.826Z,72.60
2022-10-16T11:40:27.758Z,72.43
2022-10-16T11:41:27.747Z,71.63
2022-10-16T11:42:27.752Z,73.44
2022-10-16T11:43:27.761Z,71.93
2022-10-16T11:44:27.713Z,71.73
2022-10-16T11:45:27.699Z,71.90
2022-10-16T11:46:27.733Z,72.30
2022-10-16T11:47:58.695Z,72.00
2022-10-16T11:48:28.699Z,73.13
2022-10-16T11:49:27.667Z,72.13
2022-10-16T11:50:27.661Z,72.63
2022-10-16T11:51:27.657Z,73.07
2022-10-16T11:52:27.648Z,73.33
2022-10-16T11:53:27.614Z,72.87
2022-10-16T11:54:27.606Z,73.47
2022-10-16T11:55:27.587Z,72.97
2022-10-16T11:56:27.575Z,73.37
2022-10-16T11:57:27.862Z,73.21
2022-10-16T11:58:27.606Z,73.00
2022-10-16T11:59:27.575Z,74.41
2022-10-16T12:00:27.543Z,74.31
2022-10-16T12:01:27.529Z,74.71
2022-10-16T12:02:28.057Z,74.31
2022-10-16T12:03:27.557Z,74.51
2022-10-16T12:04:27.518Z,74.41
2022-10-16T12:05:27.486Z,75.71
2022-10-16T12:06:27.464Z,76.08
2022-10-16T12:07:27.468Z,74.27
2022-10-16T12:08:27.481Z,73.67
2022-10-16T12:09:27.479Z,74.48
2022-10-16T12:10:27.889Z,74.27
2022-10-16T12:11:27.409Z,74.27
2022-10-16T12:12:29.236Z,74.98
2022-10-16T12:13:27.411Z,75.27
2022-10-16T12:14:27.398Z,73.67
2022-10-16T12:15:47.094Z,74.37
2022-10-16T12:16:28.360Z,76.34
2022-10-16T12:17:27.388Z,74.84
2022-10-16T12:18:27.342Z,74.44
2022-10-16T12:19:27.331Z,72.94
2022-10-16T12:20:27.326Z,74.64
2022-10-16T12:21:27.316Z,74.94
2022-10-16T12:22:27.639Z,76.65
2022-10-16T12:23:27.286Z,74.24
2022-10-16T12:24:27.280Z,72.83
2022-10-16T12:25:27.263Z,72.50
2022-10-16T12:26:27.256Z,72.43
2022-10-16T12:27:27.258Z,73.03
2022-10-16T12:28:27.337Z,72.43
2022-10-16T12:29:27.219Z,73.24
2022-10-16T12:30:29.022Z,71.93
2022-10-16T12:31:27.237Z,72.83
2022-10-16T12:32:46.730Z,72.63
2022-10-16T12:33:28.192Z,73.24
2022-10-16T12:34:27.170Z,72.74
2022-10-16T12:35:27.153Z,73.03
2022-10-16T12:36:27.166Z,72.63
2022-10-16T12:37:27.131Z,72.63
2022-10-16T12:38:27.121Z,73.24
2022-10-16T12:39:27.107Z,72.74
2022-10-16T12:40:27.131Z,73.33
2022-10-16T12:41:27.083Z,74.54
2022-10-16T12:42:27.369Z,71.83
2022-10-16T12:43:29.004Z,72.13
2022-10-16T12:44:27.090Z,73.64
2022-10-16T12:45:27.046Z,73.44
2022-10-16T12:46:27.070Z,73.64
2022-10-16T12:47:27.012Z,73.33
2022-10-16T12:48:32.702Z,73.13
2022-10-16T12:49:28.014Z,73.44
2022-10-16T12:50:26.992Z,72.94
2022-10-16T12:51:26.990Z,72.74
2022-10-16T12:52:27.365Z,73.33
2022-10-16T12:53:26.949Z,73.44
2022-10-16T12:54:26.942Z,73.24
2022-10-16T12:55:26.947Z,74.54
2022-10-16T12:56:26.940Z,74.54
2022-10-16T12:57:27.046Z,75.04
2022-10-16T12:58:26.902Z,73.94
2022-10-16T12:59:26.926Z,72.74
2022-10-16T13:00:26.913Z,72.53
2022-10-16T13:01:26.860Z,73.13
2022-10-16T13:02:26.882Z,73.33
2022-10-16T13:03:26.880Z,72.00
2022-10-16T13:04:26.832Z,72.30
2022-10-16T13:05:26.875Z,72.70
2022-10-16T13:06:26.816Z,73.27
2022-10-16T13:07:27.124Z,73.57
2022-10-16T13:08:26.784Z,72.36
2022-10-16T13:09:26.793Z,70.43
2022-10-16T13:10:26.767Z,70.36
2022-10-16T13:11:26.772Z,70.46
2022-10-16T13:12:26.735Z,71.23
2022-10-16T13:13:26.752Z,71.53
2022-10-16T13:14:26.718Z,71.83
2022-10-16T13:15:26.711Z,71.73
2022-10-16T13:16:26.721Z,72.03
2022-10-16T13:17:26.803Z,72.13
2022-10-16T13:18:26.690Z,71.73
2022-10-16T13:19:26.665Z,71.33
2022-10-16T13:20:26.715Z,71.03
2022-10-16T13:21:26.645Z,71.53
2022-10-16T13:22:26.630Z,71.33
2022-10-16T13:23:26.629Z,71.43
2022-10-16T13:24:26.607Z,71.43
2022-10-16T13:25:26.600Z,70.62
2022-10-16T13:26:26.604Z,71.06
2022-10-16T13:27:26.770Z,71.96
2022-10-16T13:28:26.608Z,71.96
2022-10-16T13:29:26.581Z,71.66
2022-10-16T13:30:28.357Z,71.09
2022-10-16T13:31:26.535Z,72.16
2022-10-16T13:32:26.520Z,71.86
2022-10-16T13:33:26.529Z,73.27
2022-10-16T13:34:26.513Z,72.60
2022-10-16T13:35:26.494Z,73.30
2022-10-16T13:36:26.494Z,72.80
2022-10-16T13:37:26.636Z,72.70
2022-10-16T13:38:26.471Z,73.10
2022-10-16T13:39:26.456Z,73.20
2022-10-16T13:40:26.435Z,73.60
2022-10-16T13:41:26.420Z,73.33
2022-10-16T13:42:28.071Z,74.54
2022-10-16T13:43:26.397Z,74.34
2022-10-16T13:44:26.390Z,74.24
2022-10-16T13:45:26.378Z,74.84
2022-10-16T13:46:26.361Z,75.24
2022-10-16T13:47:26.712Z,75.14
2022-10-16T13:48:26.360Z,76.15
2022-10-16T13:49:26.336Z,76.25
2022-10-16T13:50:26.352Z,75.74
2022-10-16T13:51:26.313Z,76.34
2022-10-16T13:52:26.469Z,75.95
2022-10-16T13:53:26.331Z,76.04
2022-10-16T13:54:26.276Z,76.15
2022-10-16T13:55:26.264Z,75.84
2022-10-16T13:56:26.263Z,76.25
2022-10-16T13:57:27.618Z,77.15
2022-10-16T13:58:26.232Z,76.85
2022-10-16T13:59:26.277Z,76.85
2022-10-16T14:00:26.301Z,78.09
2022-10-16T14:01:28.720Z,78.19
2022-10-16T14:02:27.502Z,78.29
2022-10-16T14:03:26.180Z,78.29
2022-10-16T14:04:26.165Z,78.59
2022-10-16T14:05:26.194Z,79.09
2022-10-16T14:06:26.158Z,79.39
2022-10-16T14:07:26.144Z,78.69
2022-10-16T14:08:26.140Z,78.49
2022-10-16T14:09:26.108Z,78.89
2022-10-16T14:10:26.097Z,78.69
2022-10-16T14:11:26.086Z,79.13
2022-10-16T14:12:28.178Z,79.83
2022-10-16T14:13:26.094Z,79.83
2022-10-16T14:14:26.055Z,79.63
2022-10-16T14:15:26.047Z,79.23
2022-10-16T14:16:26.030Z,79.43
2022-10-16T14:17:26.032Z,79.63
2022-10-16T14:18:26.007Z,79.23
2022-10-16T14:19:26.004Z,79.73
2022-10-16T14:20:25.992Z,79.23
2022-10-16T14:21:25.976Z,79.83
2022-10-16T14:22:26.307Z,79.83
2022-10-16T14:23:25.957Z,80.04
2022-10-16T14:24:25.954Z,79.53
2022-10-16T14:25:25.942Z,80.33
2022-10-16T14:26:25.934Z,80.04
2022-10-16T14:27:25.936Z,79.83
2022-10-16T14:28:25.964Z,80.13
2022-10-16T14:29:25.888Z,79.83
2022-10-16T14:30:25.888Z,80.54
2022-10-16T14:31:25.884Z,80.83
2022-10-16T14:32:26.245Z,80.74
2022-10-16T14:33:25.875Z,81.04
2022-10-16T14:34:25.837Z,80.94
2022-10-16T14:35:25.821Z,80.54
2022-10-16T14:36:25.816Z,80.74
2022-10-16T14:37:27.769Z,80.74
2022-10-16T14:38:25.821Z,80.43
2022-10-16T14:39:25.804Z,80.83
2022-10-16T14:40:25.770Z,81.04
2022-10-16T14:41:25.768Z,80.74
2022-10-16T14:42:25.763Z,81.14
2022-10-16T14:43:25.750Z,81.44
2022-10-16T14:44:25.755Z,81.34
2022-10-16T14:45:25.712Z,81.04
2022-10-16T14:46:25.720Z,81.64
2022-10-16T14:47:26.263Z,81.44
2022-10-16T14:48:25.680Z,81.54
2022-10-16T14:49:25.707Z,81.94
2022-10-16T14:50:25.662Z,81.84
2022-10-16T14:51:25.649Z,82.04
2022-10-16T14:52:25.662Z,81.94
2022-10-16T14:53:25.656Z,82.24
2022-10-16T14:54:25.632Z,82.64
2022-10-16T14:55:25.666Z,82.24
2022-10-16T14:56:25.590Z,83.15
2022-10-16T14:57:25.987Z,82.45
2022-10-16T14:58:25.599Z,82.58
2022-10-16T14:59:25.558Z,82.24
2022-10-16T15:00:25.557Z,81.88
2022-10-16T15:01:25.543Z,82.58
2022-10-16T15:02:25.545Z,82.38
2022-10-16T15:03:25.585Z,82.58
2022-10-16T15:04:25.520Z,82.18
2022-10-16T15:05:25.497Z,82.24
2022-10-16T15:06:25.509Z,82.28
2022-10-16T15:07:25.724Z,82.84
2022-10-16T15:08:25.462Z,83.25
2022-10-16T15:09:25.472Z,83.18
2022-10-16T15:10:25.455Z,83.69
2022-10-16T15:11:25.432Z,83.09
2022-10-16T15:12:25.428Z,82.68
2022-10-16T15:13:25.430Z,82.68
2022-10-16T15:14:25.408Z,83.29
2022-10-16T15:15:25.386Z,83.59
2022-10-16T15:16:25.395Z,83.49
2022-10-16T15:17:25.670Z,83.29
2022-10-16T15:18:25.355Z,83.39
2022-10-16T15:19:25.362Z,83.18
2022-10-16T15:20:25.363Z,83.59
2022-10-16T15:21:25.314Z,83.29
2022-10-16T15:22:25.321Z,84.09
2022-10-16T15:24:25.286Z,84.19
2022-10-16T15:25:25.277Z,84.19
2022-10-16T15:26:25.322Z,84.19
2022-10-16T15:27:25.590Z,84.09
2022-10-16T15:28:25.364Z,84.13
2022-10-16T15:29:25.226Z,83.99
2022-10-16T15:30:25.221Z,83.89
2022-10-16T15:31:25.203Z,85.14
2022-10-16T15:32:25.254Z,85.44
2022-10-16T15:33:25.185Z,85.14
2022-10-16T15:34:25.200Z,85.03
2022-10-16T15:35:25.179Z,84.74
2022-10-16T15:36:25.156Z,84.33
2022-10-16T15:37:25.459Z,84.63
2022-10-16T15:38:25.151Z,84.83
2022-10-16T15:39:25.131Z,85.53
2022-10-16T15:40:25.148Z,85.94
2022-10-16T15:41:25.101Z,85.44
2022-10-16T15:42:25.418Z,85.64
2022-10-16T15:43:25.080Z,86.24
2022-10-16T15:44:25.096Z,86.38
2022-10-16T15:45:25.073Z,86.38
2022-10-16T15:46:25.057Z,86.48
2022-10-16T15:47:25.036Z,86.08
2022-10-16T15:48:25.035Z,85.98
2022-10-16T15:49:25.018Z,85.88
2022-10-16T15:50:25.045Z,85.88
2022-10-16T15:51:24.996Z,85.68
2022-10-16T15:52:25.275Z,85.68
2022-10-16T15:53:25.089Z,85.78
2022-10-16T15:54:25.340Z,86.28
2022-10-16T15:55:25.110Z,86.28
2022-10-16T15:56:24.989Z,85.52
2022-10-16T15:57:24.961Z,85.68
2022-10-16T15:58:24.971Z,85.72
2022-10-16T15:59:24.908Z,86.12
2022-10-16T16:00:24.906Z,85.98
2022-10-16T16:01:25.025Z,86.08
2022-10-16T16:02:25.313Z,86.08
2022-10-16T16:03:24.885Z,86.28
2022-10-16T16:04:42.732Z,86.18
2022-10-16T16:05:25.877Z,86.18
2022-10-16T16:06:27.142Z,86.58
2022-10-16T16:07:24.828Z,86.48
2022-10-16T16:08:24.832Z,86.58
2022-10-16T16:09:24.803Z,86.38
2022-10-16T16:10:24.788Z,87.13
2022-10-16T16:11:24.791Z,86.38
2022-10-16T16:12:25.247Z,86.83
2022-10-16T16:13:24.775Z,86.43
2022-10-16T16:14:24.805Z,86.32
2022-10-16T16:15:24.744Z,86.52
2022-10-16T16:16:24.744Z,87.43
2022-10-16T16:17:24.710Z,86.93
2022-10-16T16:18:24.726Z,86.72
2022-10-16T16:19:24.741Z,86.52
2022-10-16T16:20:24.676Z,86.83
2022-10-16T16:21:24.665Z,86.97
2022-10-16T16:22:24.664Z,86.83
2022-10-16T16:23:24.649Z,87.53
2022-10-16T16:24:24.672Z,86.72
2022-10-16T16:25:24.617Z,86.52
2022-10-16T16:26:24.628Z,86.93
2022-10-16T16:27:24.887Z,86.83
2022-10-16T16:28:24.705Z,87.23
2022-10-16T16:29:24.613Z,87.43
2022-10-16T16:30:28.065Z,86.83
2022-10-16T16:31:24.694Z,87.53
2022-10-16T16:32:24.542Z,86.72
2022-10-16T16:33:24.532Z,87.33
2022-10-16T16:34:24.523Z,86.77
2022-10-16T16:35:24.529Z,87.07
2022-10-16T16:37:24.628Z,87.77
2022-10-16T16:38:24.501Z,87.77
2022-10-16T16:39:24.471Z,86.77
2022-10-16T16:40:24.462Z,86.97
2022-10-16T16:41:24.557Z,87.87
2022-10-16T16:42:24.482Z,87.57
2022-10-16T16:43:24.422Z,86.97
2022-10-16T16:44:24.425Z,87.07
2022-10-16T16:45:24.486Z,86.87
2022-10-16T16:46:24.408Z,87.17
2022-10-16T16:47:24.697Z,87.67
2022-10-16T16:48:24.374Z,87.47
2022-10-16T16:49:24.370Z,87.67
2022-10-16T16:50:24.347Z,86.81
2022-10-16T16:51:24.357Z,86.87
2022-10-16T16:52:24.371Z,86.87
2022-10-16T16:53:24.912Z,86.66
2022-10-16T16:54:24.415Z,87.92
2022-10-16T16:55:24.685Z,87.62
2022-10-16T16:56:24.403Z,86.66
2022-10-16T16:57:24.498Z,87.77
2022-10-16T16:58:24.270Z,87.11
2022-10-16T16:59:24.260Z,87.67
2022-10-16T17:00:24.416Z,86.87
2022-10-16T17:01:24.292Z,87.57
2022-10-16T17:02:24.230Z,87.71
2022-10-16T17:03:24.341Z,87.31
2022-10-16T17:04:24.190Z,87.77
2022-10-16T17:05:25.081Z,87.71
2022-10-16T17:06:24.171Z,88.02
2022-10-16T17:07:24.483Z,87.62
2022-10-16T17:08:24.175Z,87.71
2022-10-16T17:09:24.188Z,88.02
2022-10-16T17:10:24.167Z,87.82
2022-10-16T17:11:24.138Z,87.92
2022-10-16T17:12:24.114Z,87.92
2022-10-16T17:13:24.218Z,87.82
2022-10-16T17:14:24.138Z,88.12
2022-10-16T17:15:24.123Z,88.42
2022-10-16T17:16:24.346Z,88.52
2022-10-16T17:17:24.140Z,88.52
2022-10-16T17:18:24.076Z,88.42
2022-10-16T17:19:24.084Z,88.12
2022-10-16T17:20:24.041Z,88.26
2022-10-16T17:21:24.010Z,88.46
2022-10-16T17:22:24.310Z,88.46
2022-10-16T17:23:23.982Z,88.26
2022-10-16T17:24:24.025Z,88.32
2022-10-16T17:25:25.207Z,88.86
2022-10-16T17:26:23.947Z,88.56
2022-10-16T17:27:24.061Z,88.46